Aberdeen, WA

12:37 AM PDT on November 01, 2014 (GMT -0700)
Central Park 2 | Change Station
CLOSE
Current Station
Personal Weather Station
Location: Aberdeen, WA
Elevation: 33 ft
Nearby Weather Stations

Elev 33 ft 46.97 °N, 123.72 °W | Updated 6 minutes ago

Fog
Fog
44.8 °F
Feels Like 45 °F
N
0.0
Wind Variable Wind from NE

Today
High -- | Low -- °F
--% Chance of Precip.
Yesterday
High -- | Low -- °F
Precip. -- in
7:57 AM 5:58 PM
Waxing Gibbous, 64% visible
Pressure 29.87 in
Visibility 1.0 miles
Clouds Scattered Clouds 600 ft
Overcast 2200 ft
Windchill 45 °F
Dew Point 44 °F
Humidity 99%
Rainfall 0.00 in
Snow Depth Not available.
UV 0 out of 12
Pollen .30 out of 12
Air Quality Not available.
Flu Activity Not available.
SPECI KHQM 010726Z AUTO 06006KT 1SM BR SCT006 OVC022 07/07 A2987 RMK AO2 T00720072

More Conditions Fewer Conditions

Pressure 29.87 in
Visibility 1.0 miles
Clouds Scattered Clouds 600 ft
Overcast 2200 ft
Windchill 45 °F
Dew Point 44 °F
Humidity 99%
Rainfall 0.00 in
Snow Depth Not available.
UV 0 out of 12
Pollen .30 out of 12
Air Quality Not available.
Flu Activity Not available.
SPECI KHQM 010726Z AUTO 06006KT 1SM BR SCT006 OVC022 07/07 A2987 RMK AO2 T00720072

More Conditions Fewer Conditions

10-Day Weather Forecast

Almanac

Astronomy

Nov. 01, 2014 Rise Set
Actual Time
Civil Twilight
Nautical Twilight
Astronomical Twilight
Moon
Length of Visible Light
Length of Day
Tomorrow will be .
, % of the Moon is Illuminated

Today's Extremes

State Highs State Lows

Community

WunderPhotos

Upload Photos

1,766,866 photos uploaded!

WunderBlogs® & News

Nearby

Air Quality

  Air Quality AQ Index Pollutant
Not available.

Snow Depth

Station Depth Elevation

Earthquake Activity

City Distance Mag. Time & Date
Minimum magnitude displayed is 2.5.

Coastal Water Temperatures

Place Temperature

Nearby Weather Stations